sensor_id;sensor_type;location;lat;lon;timestamp;P1;durP1;ratioP1;P2;durP2;ratioP2
1779;SDS011;10019;46.670;14.260;2022-11-20T00:01:53;5.20;;;4.37;;
1779;SDS011;10019;46.670;14.260;2022-11-20T00:04:24;5.70;;;4.37;;
1779;SDS011;10019;46.670;14.260;2022-11-20T00:06:56;4.97;;;3.90;;
1779;SDS011;10019;46.670;14.260;2022-11-20T00:09:28;5.13;;;4.10;;
1779;SDS011;10019;46.670;14.260;2022-11-20T00:11:59;5.50;;;4.90;;
1779;SDS011;10019;46.670;14.260;2022-11-20T00:14:31;5.80;;;5.10;;
1779;SDS011;10019;46.670;14.260;2022-11-20T00:17:04;4.07;;;3.67;;
1779;SDS011;10019;46.670;14.260;2022-11-20T00:19:36;5.17;;;4.40;;
1779;SDS011;10019;46.670;14.260;2022-11-20T00:22:07;4.87;;;4.07;;
1779;SDS011;10019;46.670;14.260;2022-11-20T00:24:39;11.17;;;4.37;;
1779;SDS011;10019;46.670;14.260;2022-11-20T00:27:11;8.53;;;4.23;;
1779;SDS011;10019;46.670;14.260;2022-11-20T00:29:43;5.07;;;4.17;;
1779;SDS011;10019;46.670;14.260;2022-11-20T00:32:16;6.40;;;5.00;;
1779;SDS011;10019;46.670;14.260;2022-11-20T00:34:48;6.23;;;5.00;;
1779;SDS011;10019;46.670;14.260;2022-11-20T00:37:19;5.60;;;4.10;;
1779;SDS011;10019;46.670;14.260;2022-11-20T00:39:51;5.27;;;3.93;;
1779;SDS011;10019;46.670;14.260;2022-11-20T00:42:23;8.63;;;4.80;;
1779;SDS011;10019;46.670;14.260;2022-11-20T00:44:54;6.40;;;4.40;;
1779;SDS011;10019;46.670;14.260;2022-11-20T00:47:27;5.43;;;4.37;;
1779;SDS011;10019;46.670;14.260;2022-11-20T00:49:59;5.50;;;4.90;;
1779;SDS011;10019;46.670;14.260;2022-11-20T00:52:31;6.20;;;5.20;;
1779;SDS011;10019;46.670;14.260;2022-11-20T00:55:02;5.37;;;4.60;;
1779;SDS011;10019;46.670;14.260;2022-11-20T00:57:34;5.77;;;5.13;;
1779;SDS011;10019;46.670;14.260;2022-11-20T01:00:06;6.87;;;4.57;;
1779;SDS011;10019;46.670;14.260;2022-11-20T01:02:40;5.70;;;4.33;;
1779;SDS011;10019;46.670;14.260;2022-11-20T01:05:12;6.93;;;4.77;;
1779;SDS011;10019;46.670;14.260;2022-11-20T01:07:44;8.00;;;5.27;;
1779;SDS011;10019;46.670;14.260;2022-11-20T01:10:16;6.07;;;5.40;;
1779;SDS011;10019;46.670;14.260;2022-11-20T01:12:47;4.93;;;4.47;;
1779;SDS011;10019;46.670;14.260;2022-11-20T01:15:39;5.80;;;5.20;;
1779;SDS011;10019;46.670;14.260;2022-11-20T01:18:12;5.50;;;4.53;;
1779;SDS011;10019;46.670;14.260;2022-11-20T01:20:44;5.37;;;4.60;;
1779;SDS011;10019;46.670;14.260;2022-11-20T01:23:15;6.03;;;4.80;;
1779;SDS011;10019;46.670;14.260;2022-11-20T01:25:47;5.67;;;4.30;;
1779;SDS011;10019;46.670;14.260;2022-11-20T01:28:19;4.00;;;3.57;;
1779;SDS011;10019;46.670;14.260;2022-11-20T01:30:50;4.87;;;3.97;;
1779;SDS011;10019;46.670;14.260;2022-11-20T01:33:24;4.70;;;4.03;;
1779;SDS011;10019;46.670;14.260;2022-11-20T01:36:02;4.27;;;3.73;;
1779;SDS011;10019;46.670;14.260;2022-11-20T01:38:35;4.20;;;3.80;;
1779;SDS011;10019;46.670;14.260;2022-11-20T01:41:07;4.70;;;3.90;;
1779;SDS011;10019;46.670;14.260;2022-11-20T01:43:39;5.43;;;3.80;;
1779;SDS011;10019;46.670;14.260;2022-11-20T01:46:14;4.37;;;3.93;;
1779;SDS011;10019;46.670;14.260;2022-11-20T01:48:51;4.87;;;3.80;;
1779;SDS011;10019;46.670;14.260;2022-11-20T01:51:25;4.87;;;4.27;;
1779;SDS011;10019;46.670;14.260;2022-11-20T01:54:00;5.43;;;4.10;;
1779;SDS011;10019;46.670;14.260;2022-11-20T01:56:34;4.23;;;3.73;;
1779;SDS011;10019;46.670;14.260;2022-11-20T01:59:08;4.63;;;3.87;;
1779;SDS011;10019;46.670;14.260;2022-11-20T02:01:42;5.77;;;3.90;;
1779;SDS011;10019;46.670;14.260;2022-11-20T02:04:15;4.43;;;3.60;;
1779;SDS011;10019;46.670;14.260;2022-11-20T02:06:47;3.70;;;3.40;;
1779;SDS011;10019;46.670;14.260;2022-11-20T02:09:21;4.33;;;3.83;;
1779;SDS011;10019;46.670;14.260;2022-11-20T02:11:52;4.67;;;4.17;;
1779;SDS011;10019;46.670;14.260;2022-11-20T02:14:24;5.33;;;4.23;;
1779;SDS011;10019;46.670;14.260;2022-11-20T02:16:55;4.13;;;3.73;;
1779;SDS011;10019;46.670;14.260;2022-11-20T02:19:29;3.80;;;3.40;;
1779;SDS011;10019;46.670;14.260;2022-11-20T02:22:04;4.23;;;3.83;;
1779;SDS011;10019;46.670;14.260;2022-11-20T02:24:40;3.97;;;3.20;;
1779;SDS011;10019;46.670;14.260;2022-11-20T02:27:13;3.77;;;3.37;;
1779;SDS011;10019;46.670;14.260;2022-11-20T02:29:46;4.60;;;4.20;;
1779;SDS011;10019;46.670;14.260;2022-11-20T02:32:19;4.83;;;4.00;;
1779;SDS011;10019;46.670;14.260;2022-11-20T02:34:52;4.30;;;3.90;;
1779;SDS011;10019;46.670;14.260;2022-11-20T02:37:24;4.37;;;3.80;;
1779;SDS011;10019;46.670;14.260;2022-11-20T02:40:01;5.00;;;4.10;;
1779;SDS011;10019;46.670;14.260;2022-11-20T02:42:34;4.10;;;3.40;;
1779;SDS011;10019;46.670;14.260;2022-11-20T02:45:06;5.00;;;3.93;;
1779;SDS011;10019;46.670;14.260;2022-11-20T02:47:38;4.70;;;3.77;;
1779;SDS011;10019;46.670;14.260;2022-11-20T02:50:10;4.13;;;3.47;;
1779;SDS011;10019;46.670;14.260;2022-11-20T02:52:42;5.03;;;3.40;;
1779;SDS011;10019;46.670;14.260;2022-11-20T02:55:15;4.67;;;3.63;;
1779;SDS011;10019;46.670;14.260;2022-11-20T02:57:47;5.10;;;3.73;;
1779;SDS011;10019;46.670;14.260;2022-11-20T03:00:18;4.03;;;3.63;;
1779;SDS011;10019;46.670;14.260;2022-11-20T03:02:50;5.03;;;3.60;;
1779;SDS011;10019;46.670;14.260;2022-11-20T03:05:22;4.30;;;3.70;;
1779;SDS011;10019;46.670;14.260;2022-11-20T03:07:53;4.63;;;3.73;;
1779;SDS011;10019;46.670;14.260;2022-11-20T03:10:27;5.03;;;4.47;;
1779;SDS011;10019;46.670;14.260;2022-11-20T03:12:58;4.10;;;3.47;;
1779;SDS011;10019;46.670;14.260;2022-11-20T03:15:30;5.30;;;3.90;;
1779;SDS011;10019;46.670;14.260;2022-11-20T03:18:03;3.97;;;3.57;;
1779;SDS011;10019;46.670;14.260;2022-11-20T03:20:35;5.10;;;4.20;;
1779;SDS011;10019;46.670;14.260;2022-11-20T03:23:07;5.17;;;4.30;;
1779;SDS011;10019;46.670;14.260;2022-11-20T03:25:42;7.20;;;6.07;;
1779;SDS011;10019;46.670;14.260;2022-11-20T03:28:14;6.23;;;4.90;;
1779;SDS011;10019;46.670;14.260;2022-11-20T03:30:46;6.07;;;4.10;;
1779;SDS011;10019;46.670;14.260;2022-11-20T03:33:17;5.37;;;4.10;;
1779;SDS011;10019;46.670;14.260;2022-11-20T03:35:49;5.80;;;4.30;;
1779;SDS011;10019;46.670;14.260;2022-11-20T03:38:21;4.70;;;3.70;;
1779;SDS011;10019;46.670;14.260;2022-11-20T03:40:57;6.83;;;4.20;;
1779;SDS011;10019;46.670;14.260;2022-11-20T03:43:29;3.63;;;3.10;;
1779;SDS011;10019;46.670;14.260;2022-11-20T03:46:01;4.67;;;3.90;;
1779;SDS011;10019;46.670;14.260;2022-11-20T03:48:33;4.07;;;3.67;;
1779;SDS011;10019;46.670;14.260;2022-11-20T03:51:08;6.27;;;3.80;;
1779;SDS011;10019;46.670;14.260;2022-11-20T03:53:41;4.70;;;4.10;;
1779;SDS011;10019;46.670;14.260;2022-11-20T03:56:16;5.47;;;3.97;;
1779;SDS011;10019;46.670;14.260;2022-11-20T03:58:48;3.60;;;3.30;;
1779;SDS011;10019;46.670;14.260;2022-11-20T04:01:21;4.17;;;3.47;;
1779;SDS011;10019;46.670;14.260;2022-11-20T04:03:54;3.20;;;2.90;;
1779;SDS011;10019;46.670;14.260;2022-11-20T04:06:27;3.87;;;3.00;;
1779;SDS011;10019;46.670;14.260;2022-11-20T04:09:00;3.53;;;2.90;;
1779;SDS011;10019;46.670;14.260;2022-11-20T04:11:34;2.90;;;2.70;;
1779;SDS011;10019;46.670;14.260;2022-11-20T04:14:11;2.90;;;2.50;;
1779;SDS011;10019;46.670;14.260;2022-11-20T04:16:44;2.40;;;2.20;;
1779;SDS011;10019;46.670;14.260;2022-11-20T04:19:15;2.43;;;2.23;;
1779;SDS011;10019;46.670;14.260;2022-11-20T04:21:47;2.47;;;2.20;;
1779;SDS011;10019;46.670;14.260;2022-11-20T04:24:19;3.20;;;2.20;;
1779;SDS011;10019;46.670;14.260;2022-11-20T04:26:52;2.83;;;2.20;;
1779;SDS011;10019;46.670;14.260;2022-11-20T04:29:23;2.50;;;2.30;;
1779;SDS011;10019;46.670;14.260;2022-11-20T04:31:55;2.17;;;1.93;;
1779;SDS011;10019;46.670;14.260;2022-11-20T04:34:27;2.37;;;2.07;;
1779;SDS011;10019;46.670;14.260;2022-11-20T04:36:59;2.40;;;2.20;;
1779;SDS011;10019;46.670;14.260;2022-11-20T04:39:30;2.27;;;2.07;;
1779;SDS011;10019;46.670;14.260;2022-11-20T04:42:03;2.67;;;2.40;;
1779;SDS011;10019;46.670;14.260;2022-11-20T04:44:52;2.60;;;2.37;;
1779;SDS011;10019;46.670;14.260;2022-11-20T04:47:24;3.47;;;2.33;;
1779;SDS011;10019;46.670;14.260;2022-11-20T04:49:56;2.73;;;2.53;;
1779;SDS011;10019;46.670;14.260;2022-11-20T04:52:27;2.37;;;2.17;;
1779;SDS011;10019;46.670;14.260;2022-11-20T04:54:59;2.37;;;2.17;;
1779;SDS011;10019;46.670;14.260;2022-11-20T04:57:32;2.80;;;1.87;;
1779;SDS011;10019;46.670;14.260;2022-11-20T05:00:04;2.30;;;2.10;;
1779;SDS011;10019;46.670;14.260;2022-11-20T05:02:37;2.43;;;2.23;;
1779;SDS011;10019;46.670;14.260;2022-11-20T05:05:08;2.80;;;1.90;;
1779;SDS011;10019;46.670;14.260;2022-11-20T05:07:40;2.90;;;2.30;;
1779;SDS011;10019;46.670;14.260;2022-11-20T05:10:12;2.80;;;2.20;;
1779;SDS011;10019;46.670;14.260;2022-11-20T05:12:45;2.30;;;2.10;;
1779;SDS011;10019;46.670;14.260;2022-11-20T05:15:17;5.67;;;2.33;;
1779;SDS011;10019;46.670;14.260;2022-11-20T05:17:48;2.90;;;2.47;;
1779;SDS011;10019;46.670;14.260;2022-11-20T05:20:21;3.40;;;2.23;;
1779;SDS011;10019;46.670;14.260;2022-11-20T05:22:52;2.43;;;2.23;;
1779;SDS011;10019;46.670;14.260;2022-11-20T05:25:27;2.27;;;2.03;;
1779;SDS011;10019;46.670;14.260;2022-11-20T05:28:00;2.40;;;2.20;;
1779;SDS011;10019;46.670;14.260;2022-11-20T05:30:32;2.63;;;2.43;;
1779;SDS011;10019;46.670;14.260;2022-11-20T05:33:04;2.57;;;2.37;;
1779;SDS011;10019;46.670;14.260;2022-11-20T05:35:35;2.90;;;2.27;;
1779;SDS011;10019;46.670;14.260;2022-11-20T05:38:07;3.47;;;2.73;;
1779;SDS011;10019;46.670;14.260;2022-11-20T05:40:39;3.10;;;2.10;;
1779;SDS011;10019;46.670;14.260;2022-11-20T05:43:12;2.60;;;2.40;;
1779;SDS011;10019;46.670;14.260;2022-11-20T05:45:51;2.50;;;2.30;;
1779;SDS011;10019;46.670;14.260;2022-11-20T05:48:23;2.87;;;2.57;;
1779;SDS011;10019;46.670;14.260;2022-11-20T05:50:56;3.43;;;2.60;;
1779;SDS011;10019;46.670;14.260;2022-11-20T05:53:28;2.73;;;2.23;;
1779;SDS011;10019;46.670;14.260;2022-11-20T05:56:00;3.13;;;2.60;;
1779;SDS011;10019;46.670;14.260;2022-11-20T05:58:35;2.63;;;2.43;;
1779;SDS011;10019;46.670;14.260;2022-11-20T06:01:08;2.97;;;2.67;;
1779;SDS011;10019;46.670;14.260;2022-11-20T06:03:41;3.50;;;2.97;;
1779;SDS011;10019;46.670;14.260;2022-11-20T06:06:16;2.53;;;2.33;;
1779;SDS011;10019;46.670;14.260;2022-11-20T06:08:48;2.77;;;2.57;;
1779;SDS011;10019;46.670;14.260;2022-11-20T06:11:20;2.50;;;2.30;;
1779;SDS011;10019;46.670;14.260;2022-11-20T06:13:53;3.10;;;2.80;;
1779;SDS011;10019;46.670;14.260;2022-11-20T06:16:25;3.13;;;2.83;;
1779;SDS011;10019;46.670;14.260;2022-11-20T06:18:56;3.40;;;3.10;;
1779;SDS011;10019;46.670;14.260;2022-11-20T06:21:28;2.43;;;2.20;;
1779;SDS011;10019;46.670;14.260;2022-11-20T06:24:00;4.60;;;3.50;;
1779;SDS011;10019;46.670;14.260;2022-11-20T06:26:31;3.80;;;2.90;;
1779;SDS011;10019;46.670;14.260;2022-11-20T06:29:04;2.93;;;2.70;;
1779;SDS011;10019;46.670;14.260;2022-11-20T06:31:36;4.00;;;3.20;;
1779;SDS011;10019;46.670;14.260;2022-11-20T06:34:08;3.70;;;3.10;;
1779;SDS011;10019;46.670;14.260;2022-11-20T06:36:40;2.83;;;2.50;;
1779;SDS011;10019;46.670;14.260;2022-11-20T06:39:12;2.97;;;2.63;;
1779;SDS011;10019;46.670;14.260;2022-11-20T06:41:43;2.87;;;2.57;;
1779;SDS011;10019;46.670;14.260;2022-11-20T06:44:16;3.00;;;2.67;;
1779;SDS011;10019;46.670;14.260;2022-11-20T06:46:48;2.83;;;2.43;;
1779;SDS011;10019;46.670;14.260;2022-11-20T06:49:20;3.63;;;2.77;;
1779;SDS011;10019;46.670;14.260;2022-11-20T06:51:51;4.30;;;3.90;;
1779;SDS011;10019;46.670;14.260;2022-11-20T06:54:23;3.30;;;3.00;;
1779;SDS011;10019;46.670;14.260;2022-11-20T06:56:54;5.90;;;5.10;;
1779;SDS011;10019;46.670;14.260;2022-11-20T06:59:28;7.57;;;5.40;;
1779;SDS011;10019;46.670;14.260;2022-11-20T07:01:59;3.80;;;3.17;;
1779;SDS011;10019;46.670;14.260;2022-11-20T07:04:31;3.40;;;3.10;;
1779;SDS011;10019;46.670;14.260;2022-11-20T07:07:03;3.13;;;2.83;;
1779;SDS011;10019;46.670;14.260;2022-11-20T07:09:36;4.10;;;3.50;;
1779;SDS011;10019;46.670;14.260;2022-11-20T07:12:07;5.30;;;3.40;;
1779;SDS011;10019;46.670;14.260;2022-11-20T07:14:41;4.33;;;3.53;;
1779;SDS011;10019;46.670;14.260;2022-11-20T07:17:12;4.43;;;4.03;;
1779;SDS011;10019;46.670;14.260;2022-11-20T07:19:44;4.47;;;3.97;;
1779;SDS011;10019;46.670;14.260;2022-11-20T07:22:16;5.03;;;4.30;;
1779;SDS011;10019;46.670;14.260;2022-11-20T07:24:47;6.30;;;4.27;;
1779;SDS011;10019;46.670;14.260;2022-11-20T07:27:19;4.43;;;4.03;;
1779;SDS011;10019;46.670;14.260;2022-11-20T07:29:52;4.00;;;3.60;;
1779;SDS011;10019;46.670;14.260;2022-11-20T07:32:24;3.53;;;3.23;;
1779;SDS011;10019;46.670;14.260;2022-11-20T07:34:56;6.10;;;5.60;;
1779;SDS011;10019;46.670;14.260;2022-11-20T07:37:27;8.10;;;5.47;;
1779;SDS011;10019;46.670;14.260;2022-11-20T07:39:59;4.80;;;4.30;;
1779;SDS011;10019;46.670;14.260;2022-11-20T07:42:31;3.47;;;3.17;;
1779;SDS011;10019;46.670;14.260;2022-11-20T07:45:04;3.67;;;3.30;;
1779;SDS011;10019;46.670;14.260;2022-11-20T07:47:37;4.20;;;3.17;;
1779;SDS011;10019;46.670;14.260;2022-11-20T07:50:09;3.40;;;3.07;;
1779;SDS011;10019;46.670;14.260;2022-11-20T07:52:40;4.90;;;3.80;;
1779;SDS011;10019;46.670;14.260;2022-11-20T07:55:12;9.07;;;7.43;;
1779;SDS011;10019;46.670;14.260;2022-11-20T07:57:44;5.50;;;5.00;;
1779;SDS011;10019;46.670;14.260;2022-11-20T08:00:17;3.40;;;3.10;;
1779;SDS011;10019;46.670;14.260;2022-11-20T08:02:49;3.50;;;3.20;;
1779;SDS011;10019;46.670;14.260;2022-11-20T08:05:21;3.93;;;3.00;;
1779;SDS011;10019;46.670;14.260;2022-11-20T08:07:53;5.30;;;4.13;;
1779;SDS011;10019;46.670;14.260;2022-11-20T08:10:25;3.93;;;3.53;;
1779;SDS011;10019;46.670;14.260;2022-11-20T08:12:56;4.43;;;3.87;;
1779;SDS011;10019;46.670;14.260;2022-11-20T08:15:49;4.23;;;3.60;;
1779;SDS011;10019;46.670;14.260;2022-11-20T08:18:21;5.73;;;3.90;;
1779;SDS011;10019;46.670;14.260;2022-11-20T08:20:53;4.27;;;3.87;;
1779;SDS011;10019;46.670;14.260;2022-11-20T08:23:25;7.17;;;4.50;;
1779;SDS011;10019;46.670;14.260;2022-11-20T08:25:56;4.43;;;3.80;;
1779;SDS011;10019;46.670;14.260;2022-11-20T08:28:28;4.10;;;3.70;;
1779;SDS011;10019;46.670;14.260;2022-11-20T08:31:01;3.43;;;3.13;;
1779;SDS011;10019;46.670;14.260;2022-11-20T08:33:33;4.03;;;3.47;;
1779;SDS011;10019;46.670;14.260;2022-11-20T08:36:05;4.30;;;3.90;;
1779;SDS011;10019;46.670;14.260;2022-11-20T08:38:38;3.80;;;3.40;;
1779;SDS011;10019;46.670;14.260;2022-11-20T08:41:09;5.23;;;4.80;;
1779;SDS011;10019;46.670;14.260;2022-11-20T08:43:57;4.83;;;4.20;;
1779;SDS011;10019;46.670;14.260;2022-11-20T08:46:32;4.27;;;3.87;;
1779;SDS011;10019;46.670;14.260;2022-11-20T08:49:07;4.07;;;3.47;;
1779;SDS011;10019;46.670;14.260;2022-11-20T08:51:41;3.90;;;3.50;;
1779;SDS011;10019;46.670;14.260;2022-11-20T08:54:13;4.30;;;3.90;;
1779;SDS011;10019;46.670;14.260;2022-11-20T08:56:45;4.47;;;3.97;;
1779;SDS011;10019;46.670;14.260;2022-11-20T08:59:16;4.33;;;3.30;;
1779;SDS011;10019;46.670;14.260;2022-11-20T09:01:49;4.30;;;3.90;;
1779;SDS011;10019;46.670;14.260;2022-11-20T09:04:21;4.27;;;3.57;;
1779;SDS011;10019;46.670;14.260;2022-11-20T09:06:53;5.00;;;4.50;;
1779;SDS011;10019;46.670;14.260;2022-11-20T09:09:24;4.03;;;3.63;;
1779;SDS011;10019;46.670;14.260;2022-11-20T09:11:56;3.90;;;3.40;;
1779;SDS011;10019;46.670;14.260;2022-11-20T09:14:28;3.97;;;3.57;;
1779;SDS011;10019;46.670;14.260;2022-11-20T09:17:01;4.40;;;3.53;;
1779;SDS011;10019;46.670;14.260;2022-11-20T09:19:33;7.13;;;6.00;;
1779;SDS011;10019;46.670;14.260;2022-11-20T09:22:04;5.60;;;4.57;;
1779;SDS011;10019;46.670;14.260;2022-11-20T09:24:36;4.80;;;4.17;;
1779;SDS011;10019;46.670;14.260;2022-11-20T09:27:08;5.57;;;4.10;;
1779;SDS011;10019;46.670;14.260;2022-11-20T09:29:40;4.90;;;4.03;;
1779;SDS011;10019;46.670;14.260;2022-11-20T09:32:13;8.47;;;6.30;;
1779;SDS011;10019;46.670;14.260;2022-11-20T09:34:44;4.50;;;4.10;;
1779;SDS011;10019;46.670;14.260;2022-11-20T09:37:16;6.43;;;5.83;;
1779;SDS011;10019;46.670;14.260;2022-11-20T09:39:48;6.97;;;5.10;;
1779;SDS011;10019;46.670;14.260;2022-11-20T09:42:23;5.67;;;5.07;;
1779;SDS011;10019;46.670;14.260;2022-11-20T09:45:05;4.73;;;4.00;;
1779;SDS011;10019;46.670;14.260;2022-11-20T09:47:51;4.93;;;4.43;;
1779;SDS011;10019;46.670;14.260;2022-11-20T09:50:30;5.23;;;3.80;;
1779;SDS011;10019;46.670;14.260;2022-11-20T09:53:08;5.63;;;5.03;;
1779;SDS011;10019;46.670;14.260;2022-11-20T09:55:44;5.67;;;4.70;;
1779;SDS011;10019;46.670;14.260;2022-11-20T09:58:21;5.00;;;4.40;;
1779;SDS011;10019;46.670;14.260;2022-11-20T10:00:59;4.80;;;4.30;;
1779;SDS011;10019;46.670;14.260;2022-11-20T10:03:39;6.33;;;5.50;;
1779;SDS011;10019;46.670;14.260;2022-11-20T10:06:17;10.40;;;5.03;;
1779;SDS011;10019;46.670;14.260;2022-11-20T10:08:51;6.73;;;5.60;;
1779;SDS011;10019;46.670;14.260;2022-11-20T10:11:30;6.33;;;4.50;;
1779;SDS011;10019;46.670;14.260;2022-11-20T10:14:10;7.57;;;5.60;;
1779;SDS011;10019;46.670;14.260;2022-11-20T10:16:49;6.00;;;5.10;;
1779;SDS011;10019;46.670;14.260;2022-11-20T10:19:32;7.50;;;5.10;;
1779;SDS011;10019;46.670;14.260;2022-11-20T10:22:15;5.53;;;5.00;;
1779;SDS011;10019;46.670;14.260;2022-11-20T10:24:55;7.07;;;5.53;;
1779;SDS011;10019;46.670;14.260;2022-11-20T10:30:23;8.00;;;6.40;;
1779;SDS011;10019;46.670;14.260;2022-11-20T10:32:56;5.80;;;4.77;;
1779;SDS011;10019;46.670;14.260;2022-11-20T10:35:34;8.00;;;5.80;;
1779;SDS011;10019;46.670;14.260;2022-11-20T10:38:09;7.87;;;5.77;;
1779;SDS011;10019;46.670;14.260;2022-11-20T10:40:44;8.20;;;6.20;;
1779;SDS011;10019;46.670;14.260;2022-11-20T10:43:18;9.03;;;5.50;;
1779;SDS011;10019;46.670;14.260;2022-11-20T10:45:53;9.33;;;6.37;;
1779;SDS011;10019;46.670;14.260;2022-11-20T10:48:29;7.53;;;6.27;;
1779;SDS011;10019;46.670;14.260;2022-11-20T10:51:07;8.20;;;5.67;;
1779;SDS011;10019;46.670;14.260;2022-11-20T10:53:50;6.83;;;5.93;;
1779;SDS011;10019;46.670;14.260;2022-11-20T10:56:29;7.70;;;5.80;;
1779;SDS011;10019;46.670;14.260;2022-11-20T11:02:14;8.60;;;5.20;;
1779;SDS011;10019;46.670;14.260;2022-11-20T11:04:47;5.90;;;5.30;;
1779;SDS011;10019;46.670;14.260;2022-11-20T11:07:23;7.13;;;5.07;;
1779;SDS011;10019;46.670;14.260;2022-11-20T11:09:56;6.17;;;5.57;;
1779;SDS011;10019;46.670;14.260;2022-11-20T11:12:28;7.57;;;5.40;;
1779;SDS011;10019;46.670;14.260;2022-11-20T11:15:00;7.97;;;5.20;;
1779;SDS011;10019;46.670;14.260;2022-11-20T11:17:32;6.80;;;5.50;;
1779;SDS011;10019;46.670;14.260;2022-11-20T11:20:06;5.10;;;4.60;;
1779;SDS011;10019;46.670;14.260;2022-11-20T11:22:48;6.73;;;5.27;;
1779;SDS011;10019;46.670;14.260;2022-11-20T11:25:22;7.87;;;5.60;;
1779;SDS011;10019;46.670;14.260;2022-11-20T11:27:57;6.10;;;4.87;;
1779;SDS011;10019;46.670;14.260;2022-11-20T11:30:30;5.77;;;4.60;;
1779;SDS011;10019;46.670;14.260;2022-11-20T11:33:21;10.40;;;5.10;;
1779;SDS011;10019;46.670;14.260;2022-11-20T11:35:54;7.60;;;5.63;;
1779;SDS011;10019;46.670;14.260;2022-11-20T11:38:30;5.53;;;4.70;;
1779;SDS011;10019;46.670;14.260;2022-11-20T11:41:04;6.33;;;5.40;;
1779;SDS011;10019;46.670;14.260;2022-11-20T11:43:37;6.10;;;5.07;;
1779;SDS011;10019;46.670;14.260;2022-11-20T11:46:30;4.60;;;4.20;;
1779;SDS011;10019;46.670;14.260;2022-11-20T11:49:13;5.70;;;4.80;;
1779;SDS011;10019;46.670;14.260;2022-11-20T11:51:50;5.07;;;4.57;;
1779;SDS011;10019;46.670;14.260;2022-11-20T11:54:37;6.17;;;4.40;;
1779;SDS011;10019;46.670;14.260;2022-11-20T11:57:15;6.40;;;5.37;;
1779;SDS011;10019;46.670;14.260;2022-11-20T11:59:53;5.90;;;4.83;;
1779;SDS011;10019;46.670;14.260;2022-11-20T12:02:31;7.00;;;5.20;;
1779;SDS011;10019;46.670;14.260;2022-11-20T12:05:10;6.13;;;4.93;;
1779;SDS011;10019;46.670;14.260;2022-11-20T12:07:49;8.47;;;5.60;;
1779;SDS011;10019;46.670;14.260;2022-11-20T12:10:29;6.30;;;5.13;;
1779;SDS011;10019;46.670;14.260;2022-11-20T12:13:15;5.50;;;4.10;;
1779;SDS011;10019;46.670;14.260;2022-11-20T12:15:52;5.90;;;4.43;;
1779;SDS011;10019;46.670;14.260;2022-11-20T12:18:24;5.10;;;4.53;;
1779;SDS011;10019;46.670;14.260;2022-11-20T12:20:59;6.10;;;4.10;;
1779;SDS011;10019;46.670;14.260;2022-11-20T12:23:39;4.47;;;3.87;;
1779;SDS011;10019;46.670;14.260;2022-11-20T12:26:19;5.03;;;4.40;;
1779;SDS011;10019;46.670;14.260;2022-11-20T12:29:00;5.93;;;4.40;;
1779;SDS011;10019;46.670;14.260;2022-11-20T12:31:41;5.50;;;4.53;;
1779;SDS011;10019;46.670;14.260;2022-11-20T12:34:32;4.20;;;3.80;;
1779;SDS011;10019;46.670;14.260;2022-11-20T12:37:16;4.20;;;3.40;;
1779;SDS011;10019;46.670;14.260;2022-11-20T12:39:53;4.73;;;3.90;;
1779;SDS011;10019;46.670;14.260;2022-11-20T12:42:30;5.03;;;4.53;;
1779;SDS011;10019;46.670;14.260;2022-11-20T12:48:42;4.43;;;3.60;;
1779;SDS011;10019;46.670;14.260;2022-11-20T12:51:35;4.43;;;3.73;;
1779;SDS011;10019;46.670;14.260;2022-11-20T12:54:25;4.90;;;4.20;;
1779;SDS011;10019;46.670;14.260;2022-11-20T12:57:06;3.90;;;3.47;;
1779;SDS011;10019;46.670;14.260;2022-11-20T12:59:50;5.00;;;4.20;;
1779;SDS011;10019;46.670;14.260;2022-11-20T13:02:29;4.80;;;4.30;;
1779;SDS011;10019;46.670;14.260;2022-11-20T13:05:09;5.20;;;3.97;;
1779;SDS011;10019;46.670;14.260;2022-11-20T13:07:49;4.50;;;3.90;;
1779;SDS011;10019;46.670;14.260;2022-11-20T13:10:25;4.70;;;4.20;;
1779;SDS011;10019;46.670;14.260;2022-11-20T13:13:03;4.80;;;4.20;;
1779;SDS011;10019;46.670;14.260;2022-11-20T13:15:42;4.43;;;4.03;;
1779;SDS011;10019;46.670;14.260;2022-11-20T13:18:19;4.77;;;4.20;;
1779;SDS011;10019;46.670;14.260;2022-11-20T13:20:51;6.07;;;4.30;;
1779;SDS011;10019;46.670;14.260;2022-11-20T13:23:23;4.47;;;4.07;;
1779;SDS011;10019;46.670;14.260;2022-11-20T13:26:04;5.07;;;4.50;;
1779;SDS011;10019;46.670;14.260;2022-11-20T13:28:36;4.23;;;3.77;;
1779;SDS011;10019;46.670;14.260;2022-11-20T13:31:21;4.40;;;3.80;;
1779;SDS011;10019;46.670;14.260;2022-11-20T13:33:58;10.00;;;4.43;;
1779;SDS011;10019;46.670;14.260;2022-11-20T13:36:31;5.80;;;4.87;;
1779;SDS011;10019;46.670;14.260;2022-11-20T13:39:05;4.63;;;3.73;;
1779;SDS011;10019;46.670;14.260;2022-11-20T13:41:36;5.13;;;4.63;;
1779;SDS011;10019;46.670;14.260;2022-11-20T13:44:10;5.80;;;4.80;;
1779;SDS011;10019;46.670;14.260;2022-11-20T13:46:46;5.13;;;4.23;;
1779;SDS011;10019;46.670;14.260;2022-11-20T13:49:20;4.40;;;4.00;;
1779;SDS011;10019;46.670;14.260;2022-11-20T13:51:57;6.90;;;5.00;;
1779;SDS011;10019;46.670;14.260;2022-11-20T13:54:48;7.40;;;4.80;;
1779;SDS011;10019;46.670;14.260;2022-11-20T13:57:39;7.07;;;5.10;;
1779;SDS011;10019;46.670;14.260;2022-11-20T14:00:20;7.50;;;5.33;;
1779;SDS011;10019;46.670;14.260;2022-11-20T14:03:06;5.47;;;4.90;;
1779;SDS011;10019;46.670;14.260;2022-11-20T14:05:45;8.63;;;4.73;;
1779;SDS011;10019;46.670;14.260;2022-11-20T14:08:25;6.13;;;4.87;;
1779;SDS011;10019;46.670;14.260;2022-11-20T14:11:03;6.47;;;5.33;;
1779;SDS011;10019;46.670;14.260;2022-11-20T14:13:36;7.90;;;5.50;;
1779;SDS011;10019;46.670;14.260;2022-11-20T14:16:08;8.40;;;5.50;;
1779;SDS011;10019;46.670;14.260;2022-11-20T14:18:42;5.40;;;4.57;;
1779;SDS011;10019;46.670;14.260;2022-11-20T14:21:20;6.03;;;4.93;;
1779;SDS011;10019;46.670;14.260;2022-11-20T14:23:54;6.10;;;4.50;;
1779;SDS011;10019;46.670;14.260;2022-11-20T14:26:34;6.23;;;4.50;;
1779;SDS011;10019;46.670;14.260;2022-11-20T14:29:10;7.10;;;4.83;;
1779;SDS011;10019;46.670;14.260;2022-11-20T14:31:43;6.10;;;5.07;;
1779;SDS011;10019;46.670;14.260;2022-11-20T14:34:18;5.00;;;4.23;;
1779;SDS011;10019;46.670;14.260;2022-11-20T14:36:52;6.60;;;5.10;;
1779;SDS011;10019;46.670;14.260;2022-11-20T14:39:29;6.17;;;4.50;;
1779;SDS011;10019;46.670;14.260;2022-11-20T14:42:03;7.47;;;5.20;;
1779;SDS011;10019;46.670;14.260;2022-11-20T14:44:42;4.97;;;4.47;;
1779;SDS011;10019;46.670;14.260;2022-11-20T14:47:15;24.93;;;12.33;;
1779;SDS011;10019;46.670;14.260;2022-11-20T14:49:51;27.10;;;14.40;;
1779;SDS011;10019;46.670;14.260;2022-11-20T14:52:24;10.87;;;7.13;;
1779;SDS011;10019;46.670;14.260;2022-11-20T14:54:57;5.70;;;4.73;;
1779;SDS011;10019;46.670;14.260;2022-11-20T14:57:31;5.73;;;4.60;;
1779;SDS011;10019;46.670;14.260;2022-11-20T15:00:07;4.80;;;4.00;;
1779;SDS011;10019;46.670;14.260;2022-11-20T15:02:52;8.43;;;4.70;;
1779;SDS011;10019;46.670;14.260;2022-11-20T15:05:26;4.83;;;4.30;;
1779;SDS011;10019;46.670;14.260;2022-11-20T15:08:16;8.77;;;4.17;;
1779;SDS011;10019;46.670;14.260;2022-11-20T15:10:48;10.03;;;4.13;;
1779;SDS011;10019;46.670;14.260;2022-11-20T15:13:25;7.13;;;4.33;;
1779;SDS011;10019;46.670;14.260;2022-11-20T15:15:58;6.90;;;4.53;;
1779;SDS011;10019;46.670;14.260;2022-11-20T15:18:32;5.00;;;4.40;;
1779;SDS011;10019;46.670;14.260;2022-11-20T15:21:10;4.73;;;4.13;;
1779;SDS011;10019;46.670;14.260;2022-11-20T15:23:42;5.80;;;4.60;;
1779;SDS011;10019;46.670;14.260;2022-11-20T15:26:15;4.43;;;3.53;;
1779;SDS011;10019;46.670;14.260;2022-11-20T15:28:49;6.43;;;4.40;;
1779;SDS011;10019;46.670;14.260;2022-11-20T15:31:22;5.23;;;3.93;;
1779;SDS011;10019;46.670;14.260;2022-11-20T15:33:54;5.13;;;3.70;;
1779;SDS011;10019;46.670;14.260;2022-11-20T15:36:27;6.60;;;4.03;;
1779;SDS011;10019;46.670;14.260;2022-11-20T15:38:59;4.30;;;3.77;;
1779;SDS011;10019;46.670;14.260;2022-11-20T15:41:30;5.10;;;4.03;;